createdAt,value
2018-05-24T00:00:11.138Z,98067
2018-05-24T00:02:40.493Z,98068
2018-05-24T00:05:09.794Z,98072
2018-05-24T00:07:39.204Z,98070
2018-05-24T00:10:09.319Z,98076
2018-05-24T00:12:38.568Z,98077
2018-05-24T00:15:07.922Z,98078
2018-05-24T00:17:37.223Z,98082
2018-05-24T00:20:06.628Z,98079
2018-05-24T00:22:35.929Z,98081
2018-05-24T00:25:05.330Z,98083
2018-05-24T00:27:34.632Z,98083
2018-05-24T00:30:04.066Z,98076
2018-05-24T00:32:33.437Z,98080
2018-05-24T00:35:02.740Z,98078
2018-05-24T00:37:32.859Z,98075
2018-05-24T00:40:02.982Z,98072
2018-05-24T00:42:32.385Z,98071
2018-05-24T00:45:01.791Z,98069
2018-05-24T00:47:31.907Z,98067
2018-05-24T00:50:01.312Z,98071
2018-05-24T00:52:30.715Z,98069
2018-05-24T00:58:10.692Z,98064
2018-05-24T01:00:40.805Z,98058
2018-05-24T01:03:10.111Z,98055
2018-05-24T01:05:39.467Z,98058
2018-05-24T01:08:08.803Z,98061
2018-05-24T01:10:38.121Z,98064
2018-05-24T01:13:08.236Z,98064
2018-05-24T01:15:37.639Z,98066
2018-05-24T01:18:07.047Z,98064
2018-05-24T01:20:37.165Z,98060
2018-05-24T01:23:07.286Z,98062
2018-05-24T01:25:36.686Z,98065
2018-05-24T01:28:05.990Z,98071
2018-05-24T01:30:35.393Z,98075
2018-05-24T01:33:05.512Z,98073
2018-05-24T01:35:34.917Z,98078
2018-05-24T01:38:04.266Z,98081
2018-05-24T01:40:33.621Z,98084
2018-05-24T01:43:02.919Z,98090
2018-05-24T01:45:32.225Z,98090
2018-05-24T01:48:01.629Z,98090
2018-05-24T01:50:30.931Z,98098
2018-05-24T01:53:00.978Z,98090
2018-05-24T01:55:30.250Z,98095
2018-05-24T01:57:59.654Z,98095
2018-05-24T02:00:28.955Z,98101
2018-05-24T02:02:58.359Z,98098
2018-05-24T02:05:28.484Z,98103
2018-05-24T02:07:58.600Z,98100
2018-05-24T02:10:27.901Z,98100
2018-05-24T02:12:57.304Z,98101
2018-05-24T02:15:26.706Z,98096
2018-05-24T02:17:56.012Z,98099
2018-05-24T02:20:25.412Z,98101
2018-05-24T02:22:54.713Z,98103
2018-05-24T02:25:24.118Z,98099
2018-05-24T02:27:54.239Z,98104
2018-05-24T02:30:23.642Z,98103
2018-05-24T02:32:52.933Z,98103
2018-05-24T02:35:22.294Z,98107
2018-05-24T02:37:51.648Z,98108
2018-05-24T02:40:21.154Z,98109
2018-05-24T02:42:51.273Z,98113
2018-05-24T02:45:20.575Z,98106
2018-05-24T02:47:49.980Z,98111
2018-05-24T02:50:19.286Z,98106
2018-05-24T02:52:49.403Z,98103
2018-05-24T02:55:19.522Z,98103
2018-05-24T02:57:48.931Z,98108
2018-05-24T03:00:19.049Z,98104
2018-05-24T03:02:49.166Z,98104
2018-05-24T03:05:18.468Z,98105
2018-05-24T03:07:47.870Z,98109
2018-05-24T03:10:17.160Z,98106
2018-05-24T03:12:46.474Z,98105
2018-05-24T03:15:15.826Z,98099
2018-05-24T03:17:45.179Z,98098
2018-05-24T03:20:14.584Z,98111
2018-05-24T03:22:43.887Z,98121
2018-05-24T03:25:14.004Z,98131
2018-05-24T03:27:43.305Z,98129
2018-05-24T03:30:12.709Z,98132
2018-05-24T03:32:42.112Z,98130
2018-05-24T03:35:12.261Z,98127
2018-05-24T03:37:41.531Z,98123
2018-05-24T03:40:10.937Z,98125
2018-05-24T03:42:41.058Z,98122
2018-05-24T03:45:10.452Z,98118
2018-05-24T03:47:39.763Z,98118
2018-05-24T03:50:09.066Z,98116
2018-05-24T03:52:39.186Z,98117
2018-05-24T03:55:08.485Z,98115
2018-05-24T03:57:37.892Z,98110
2018-05-24T04:00:24.907Z,98112
2018-05-24T04:03:12.030Z,98110
2018-05-24T04:05:42.204Z,98105
2018-05-24T04:08:11.550Z,98106
2018-05-24T04:10:40.851Z,98102
2018-05-24T04:13:10.254Z,98098
2018-05-24T04:15:39.561Z,98099
2018-05-24T04:18:09.676Z,98103
2018-05-24T04:20:39.057Z,98108
2018-05-24T04:23:08.383Z,98107
2018-05-24T04:25:37.681Z,98109
2018-05-24T04:28:06.988Z,98111
2018-05-24T04:30:37.103Z,98112
2018-05-24T04:33:06.492Z,98115
2018-05-24T04:35:35.809Z,98117
2018-05-24T04:38:05.097Z,98112
2018-05-24T04:40:34.416Z,98109
2018-05-24T04:43:04.532Z,98119
2018-05-24T04:45:33.938Z,98118
2018-05-24T04:48:04.055Z,98114
2018-05-24T04:50:33.506Z,98115
2018-05-24T04:53:02.862Z,98116
2018-05-24T04:55:32.267Z,98115
2018-05-24T04:58:02.389Z,98119
2018-05-24T05:00:31.791Z,98118
2018-05-24T05:03:01.090Z,98123
2018-05-24T05:05:30.497Z,98122
2018-05-24T05:08:00.617Z,98124
2018-05-24T05:10:30.737Z,98126
2018-05-24T05:13:00.801Z,98126
2018-05-24T05:15:30.166Z,98130
2018-05-24T05:17:59.561Z,98131
2018-05-24T05:20:28.964Z,98133
2018-05-24T05:22:58.350Z,98128
2018-05-24T05:25:27.772Z,98125
2018-05-24T05:27:57.182Z,98126
2018-05-24T05:30:27.296Z,98136
2018-05-24T05:32:56.701Z,98137
2018-05-24T05:35:25.949Z,98136
2018-05-24T05:37:55.302Z,98137
2018-05-24T05:40:24.610Z,98136
2018-05-24T05:42:54.724Z,98134
2018-05-24T05:45:23.965Z,98135
2018-05-24T05:47:53.269Z,98136
2018-05-24T05:50:22.526Z,98139
2018-05-24T05:52:51.931Z,98144
2018-05-24T05:55:21.232Z,98144
2018-05-24T05:57:50.634Z,98142
2018-05-24T06:00:20.038Z,98129
2018-05-24T06:02:49.342Z,98127
2018-05-24T06:05:18.691Z,98125
2018-05-24T06:07:48.032Z,98139
2018-05-24T06:10:17.324Z,98160
2018-05-24T06:12:46.638Z,98169
2018-05-24T06:15:15.949Z,98167
2018-05-24T06:17:46.014Z,98162
2018-05-24T06:20:15.369Z,98168
2018-05-24T06:22:44.775Z,98173
2018-05-24T06:25:14.075Z,98167
2018-05-24T06:27:43.479Z,98169
2018-05-24T06:30:12.771Z,98168
2018-05-24T06:32:42.187Z,98173
2018-05-24T06:35:12.304Z,98173
2018-05-24T06:37:41.693Z,98169
2018-05-24T06:40:11.110Z,98171
2018-05-24T06:42:40.412Z,98184
2018-05-24T06:45:09.817Z,98188
2018-05-24T06:47:39.936Z,98198
2018-05-24T06:50:09.243Z,98198
2018-05-24T06:52:38.642Z,98199
2018-05-24T06:55:08.753Z,98198
2018-05-24T06:57:39.601Z,98211
2018-05-24T07:00:09.707Z,98202
2018-05-24T07:02:39.022Z,98202
2018-05-24T07:05:08.424Z,98201
2018-05-24T07:07:37.828Z,98207
2018-05-24T07:10:07.134Z,98203
2018-05-24T07:12:36.538Z,98205
2018-05-24T07:15:06.654Z,98222
2018-05-24T07:17:36.878Z,98227
2018-05-24T07:20:06.929Z,98231
2018-05-24T07:22:36.298Z,98228
2018-05-24T07:25:06.419Z,98226
2018-05-24T07:27:36.544Z,98225
2018-05-24T07:30:06.675Z,98221
2018-05-24T07:32:36.780Z,98225
2018-05-24T07:35:06.025Z,98214
2018-05-24T07:37:35.363Z,98200
2018-05-24T07:40:04.786Z,98197
2018-05-24T07:42:34.088Z,98191
2018-05-24T07:45:03.579Z,98191
2018-05-24T07:47:32.895Z,98190
2018-05-24T07:50:02.196Z,98186
2018-05-24T07:52:31.482Z,98183
2018-05-24T07:55:00.798Z,98182
2018-05-24T07:57:30.100Z,98184
2018-05-24T07:59:59.400Z,98181
2018-05-24T08:02:28.809Z,98175
2018-05-24T08:04:58.924Z,98175
2018-05-24T08:07:28.330Z,98173
2018-05-24T08:09:57.738Z,98177
2018-05-24T08:12:27.853Z,98178
2018-05-24T08:14:57.976Z,98173
2018-05-24T08:17:27.274Z,98175
2018-05-24T08:19:56.679Z,98163
2018-05-24T08:22:26.174Z,98164
2018-05-24T08:24:55.487Z,98164
2018-05-24T08:27:24.889Z,98161
2018-05-24T08:29:54.190Z,98160
2018-05-24T08:32:23.594Z,98157
2018-05-24T08:34:52.895Z,98150
2018-05-24T08:37:22.298Z,98148
2018-05-24T08:39:51.701Z,98144
2018-05-24T08:42:21.050Z,98129
2018-05-24T08:44:50.406Z,98123
2018-05-24T08:47:19.835Z,98127
2018-05-24T08:49:49.214Z,98133
2018-05-24T08:52:18.515Z,98134
2018-05-24T08:54:48.636Z,98139
2018-05-24T08:57:17.878Z,98142
2018-05-24T08:59:47.272Z,98139
2018-05-24T09:02:16.643Z,98137
2018-05-24T09:04:46.047Z,98136
2018-05-24T09:07:15.348Z,98146
2018-05-24T09:09:44.648Z,98152
2018-05-24T09:12:14.052Z,98140
2018-05-24T09:14:43.345Z,98142
2018-05-24T09:17:12.662Z,98141
2018-05-24T09:19:42.775Z,98144
2018-05-24T09:22:12.165Z,98145
2018-05-24T09:24:41.482Z,98146
2018-05-24T09:27:11.544Z,98150
2018-05-24T09:29:40.908Z,98154
2018-05-24T09:32:11.086Z,98157
2018-05-24T09:34:40.426Z,98156
2018-05-24T09:37:10.548Z,98154
2018-05-24T09:39:39.950Z,98160
2018-05-24T09:42:10.057Z,98153
2018-05-24T09:44:39.371Z,98146
2018-05-24T09:47:08.775Z,98149
2018-05-24T09:49:38.179Z,98142
2018-05-24T09:52:07.420Z,98134
2018-05-24T09:54:36.780Z,98136
2018-05-24T09:57:06.082Z,98138
2018-05-24T09:59:35.383Z,98135
2018-05-24T10:02:05.504Z,98135
2018-05-24T10:04:34.958Z,98136
2018-05-24T10:07:04.313Z,98131
2018-05-24T10:09:33.715Z,98136
2018-05-24T10:12:03.017Z,98134
2018-05-24T10:14:32.323Z,98134
2018-05-24T10:17:02.438Z,98133
2018-05-24T10:19:31.739Z,98135
2018-05-24T10:22:01.149Z,98137
2018-05-24T10:24:31.263Z,98132
2018-05-24T10:27:00.667Z,98129
2018-05-24T10:29:29.977Z,98127
2018-05-24T10:31:59.268Z,98128
2018-05-24T10:34:28.672Z,98126
2018-05-24T10:36:57.975Z,98127
2018-05-24T10:39:27.391Z,98124
2018-05-24T10:41:57.501Z,98123
2018-05-24T10:44:27.609Z,98121
2018-05-24T10:46:56.923Z,98123
2018-05-24T10:49:27.040Z,98128
2018-05-24T10:51:56.328Z,98125
2018-05-24T10:54:25.647Z,98125
2018-05-24T10:56:55.763Z,98122
2018-05-24T10:59:25.166Z,98125
2018-05-24T11:01:55.291Z,98125
2018-05-24T11:04:25.407Z,98125
2018-05-24T11:06:54.811Z,98121
2018-05-24T11:09:24.111Z,98124
2018-05-24T11:11:53.516Z,98126
2018-05-24T11:14:23.639Z,98124
2018-05-24T11:16:53.756Z,98128
2018-05-24T11:19:23.059Z,98127
2018-05-24T11:21:53.125Z,98140
2018-05-24T11:24:22.426Z,98139
2018-05-24T11:26:51.784Z,98141
2018-05-24T11:29:21.903Z,98140
2018-05-24T11:31:51.414Z,98136
2018-05-24T11:34:20.708Z,98145
2018-05-24T11:36:50.011Z,98150
2018-05-24T11:39:19.399Z,98150
2018-05-24T11:41:48.714Z,98157
2018-05-24T11:44:18.118Z,98145
2018-05-24T11:46:47.419Z,98146
2018-05-24T11:49:16.711Z,98150
2018-05-24T11:51:46.025Z,98154
2018-05-24T11:54:15.324Z,98155
2018-05-24T11:56:45.443Z,98154
2018-05-24T11:59:14.746Z,98151
2018-05-24T12:01:44.910Z,98145
2018-05-24T12:04:14.269Z,98144
2018-05-24T12:06:43.645Z,98135
2018-05-24T12:09:12.973Z,98138
2018-05-24T12:11:42.322Z,98130
2018-05-24T12:14:11.665Z,98125
2018-05-24T12:16:41.083Z,98118
2018-05-24T12:19:10.383Z,98117
2018-05-24T12:21:39.686Z,98115
2018-05-24T12:24:09.090Z,98112
2018-05-24T12:26:38.390Z,98115
2018-05-24T12:29:07.842Z,98119
2018-05-24T12:31:37.198Z,98116
2018-05-24T12:34:06.548Z,98112
2018-05-24T12:36:35.903Z,98109
2018-05-24T12:39:06.226Z,98116
2018-05-24T12:41:35.587Z,98115
2018-05-24T12:44:05.036Z,98117
2018-05-24T12:46:35.156Z,98100
2018-05-24T12:49:04.645Z,98092
2018-05-24T12:51:33.963Z,98082
2018-05-24T12:54:03.274Z,98076
2018-05-24T12:56:33.387Z,98079
2018-05-24T12:59:02.671Z,98076
2018-05-24T13:01:31.985Z,98072
2018-05-24T13:04:01.276Z,98070
2018-05-24T13:06:30.690Z,98065
2018-05-24T13:08:59.993Z,98066
2018-05-24T13:11:29.293Z,98069
2018-05-24T13:13:58.698Z,98064
2018-05-24T13:16:28.042Z,98061
2018-05-24T13:18:57.403Z,98056
2018-05-24T13:21:26.704Z,98056
2018-05-24T13:23:56.100Z,98051
2018-05-24T13:26:25.409Z,98053
2018-05-24T13:28:54.807Z,98059
2018-05-24T13:31:24.115Z,98070
2018-05-24T13:33:53.414Z,98078
2018-05-24T13:36:22.818Z,98090
2018-05-24T13:38:52.118Z,98095
2018-05-24T13:41:21.426Z,98100
2018-05-24T13:43:50.723Z,98096
2018-05-24T13:46:20.781Z,98092
2018-05-24T13:48:50.144Z,98096
2018-05-24T13:51:20.206Z,98093
2018-05-24T13:53:49.513Z,98092
2018-05-24T13:56:18.969Z,98095
2018-05-24T13:58:48.398Z,98095
2018-05-24T14:01:17.675Z,98094
2018-05-24T14:03:47.078Z,98097
2018-05-24T14:06:17.190Z,98101
2018-05-24T14:08:46.602Z,98102
2018-05-24T14:11:17.470Z,98107
2018-05-24T14:13:46.843Z,98107
2018-05-24T14:16:16.247Z,98108
2018-05-24T14:18:45.651Z,98103
2018-05-24T14:21:15.056Z,98092
2018-05-24T14:23:44.355Z,98092
2018-05-24T14:26:14.570Z,98093
2018-05-24T14:28:44.585Z,98093
2018-05-24T14:31:14.148Z,98090
2018-05-24T14:33:43.507Z,98083
2018-05-24T14:36:12.915Z,98080
2018-05-24T14:38:43.794Z,98074
2018-05-24T14:41:13.108Z,98067
2018-05-24T14:43:42.450Z,98061
2018-05-24T14:46:11.855Z,98062
2018-05-24T14:48:41.256Z,98059
2018-05-24T14:51:10.561Z,98062
2018-05-24T14:53:39.964Z,98062
2018-05-24T14:56:09.266Z,98061
2018-05-24T14:58:38.669Z,98055
2018-05-24T15:01:07.970Z,98055
2018-05-24T15:03:37.274Z,98054
2018-05-24T15:06:07.396Z,98053
2018-05-24T15:08:37.511Z,98052
2018-05-24T15:11:06.919Z,98045
2018-05-24T15:13:51.137Z,98043
2018-05-24T15:16:20.468Z,98041
2018-05-24T15:18:49.765Z,98045
2018-05-24T15:21:19.178Z,98045
2018-05-24T15:23:49.293Z,98046
2018-05-24T15:26:18.526Z,98046
2018-05-24T15:28:47.727Z,98033
2018-05-24T15:31:16.973Z,98031
2018-05-24T15:33:46.166Z,98034
2018-05-24T15:36:15.499Z,98034
2018-05-24T15:38:45.657Z,98029
2018-05-24T15:41:15.017Z,98023
2018-05-24T15:43:45.141Z,98023
2018-05-24T15:46:14.439Z,98018
2018-05-24T15:48:43.831Z,98017
2018-05-24T15:51:13.143Z,98023
2018-05-24T15:53:43.264Z,98023
2018-05-24T15:56:13.376Z,98016
2018-05-24T15:58:42.787Z,98015
2018-05-24T16:01:12.089Z,98011
2018-05-24T16:03:41.390Z,98011
2018-05-24T16:06:10.697Z,98010
2018-05-24T16:08:40.812Z,98016
2018-05-24T16:11:10.161Z,98013
2018-05-24T16:13:39.516Z,98018
2018-05-24T16:16:08.823Z,98018
2018-05-24T16:18:38.941Z,98025
2018-05-24T16:21:08.342Z,98030
2018-05-24T16:23:37.645Z,98023
2018-05-24T16:26:07.048Z,98020
2018-05-24T16:28:36.328Z,98023
2018-05-24T16:31:05.756Z,98024
2018-05-24T16:33:34.997Z,98021
2018-05-24T16:36:04.307Z,98018
2018-05-24T16:38:33.656Z,98019
2018-05-24T16:41:03.057Z,98014
2018-05-24T16:43:32.413Z,98015
2018-05-24T16:46:01.764Z,98017
2018-05-24T16:48:31.099Z,98017
2018-05-24T16:51:00.470Z,98013
2018-05-24T16:53:29.770Z,98015
2018-05-24T16:55:59.075Z,98003
2018-05-24T16:58:29.192Z,98001
2018-05-24T17:00:58.598Z,98002
2018-05-24T17:03:28.001Z,98007
2018-05-24T17:05:57.404Z,98007
2018-05-24T17:08:27.523Z,98009
2018-05-24T17:10:56.928Z,98015
2018-05-24T17:13:26.229Z,98018
2018-05-24T17:15:55.531Z,98023
2018-05-24T17:18:24.835Z,98029
2018-05-24T17:20:54.235Z,98027
2018-05-24T17:23:23.537Z,98024
2018-05-24T17:25:53.602Z,98029
2018-05-24T17:28:23.004Z,98029
2018-05-24T17:30:52.362Z,98027
2018-05-24T17:33:21.770Z,98028
2018-05-24T17:35:51.874Z,98031
2018-05-24T17:38:21.288Z,98029
2018-05-24T17:40:50.693Z,98029
2018-05-24T17:43:20.096Z,98026
2018-05-24T17:45:49.384Z,98027
2018-05-24T17:48:18.700Z,98030
2018-05-24T17:50:47.992Z,98031
2018-05-24T17:53:17.357Z,98030
2018-05-24T17:55:46.704Z,98026
2018-05-24T17:58:16.005Z,98030
2018-05-24T18:00:45.305Z,98029
2018-05-24T18:03:14.690Z,98031
2018-05-24T18:05:44.011Z,98031
2018-05-24T18:08:13.301Z,98028
2018-05-24T18:10:42.614Z,98027
2018-05-24T18:13:12.223Z,98024
2018-05-24T18:15:41.628Z,98032
2018-05-24T18:18:11.746Z,98028
2018-05-24T18:20:41.053Z,98033
2018-05-24T18:23:11.170Z,98041
2018-05-24T18:25:41.089Z,98044
2018-05-24T18:28:11.206Z,98043
2018-05-24T18:30:40.610Z,98042
2018-05-24T18:33:10.009Z,98045
2018-05-24T18:35:39.314Z,98043
2018-05-24T18:38:08.719Z,98051
2018-05-24T18:40:38.836Z,98060
2018-05-24T18:43:08.245Z,98059
2018-05-24T18:45:37.589Z,98068
2018-05-24T18:48:06.947Z,98067
2018-05-24T18:50:36.350Z,98070
2018-05-24T18:53:05.659Z,98066
2018-05-24T18:55:35.771Z,98070
2018-05-24T18:58:05.067Z,98075
2018-05-24T19:00:34.478Z,98079
2018-05-24T19:03:03.868Z,98086
2018-05-24T19:05:33.181Z,98088
2018-05-24T19:08:02.573Z,98084
2018-05-24T19:10:31.890Z,98092
2018-05-24T19:13:01.955Z,98092
2018-05-24T19:15:31.309Z,98087
2018-05-24T19:18:00.716Z,98095
2018-05-24T19:20:30.832Z,98092
2018-05-24T19:23:00.139Z,98090
2018-05-24T19:25:30.255Z,98086
2018-05-24T19:27:59.657Z,98091
2018-05-24T19:30:29.065Z,98098
2018-05-24T19:32:59.181Z,98095
2018-05-24T19:35:28.585Z,98095
2018-05-24T19:37:57.989Z,98098
2018-05-24T19:40:27.376Z,98094
2018-05-24T19:42:56.797Z,98099
2018-05-24T19:45:26.915Z,98096
2018-05-24T19:47:56.324Z,98100
2018-05-24T19:50:26.506Z,98098
2018-05-24T19:52:55.846Z,98098
2018-05-24T19:55:25.970Z,98098
2018-05-24T19:57:55.368Z,98103
2018-05-24T20:00:24.651Z,98102
2018-05-24T20:02:53.997Z,98099
2018-05-24T20:05:23.375Z,98104
2018-05-24T20:07:52.677Z,98109
2018-05-24T20:10:22.079Z,98108
2018-05-24T20:12:51.382Z,98104
2018-05-24T20:15:20.792Z,98103
2018-05-24T20:17:50.852Z,98108
2018-05-24T20:20:20.232Z,98109
2018-05-24T20:22:49.586Z,98107
2018-05-24T20:25:18.909Z,98110
2018-05-24T20:27:48.218Z,98101
2018-05-24T20:30:18.434Z,98104
2018-05-24T20:32:47.828Z,98106
2018-05-24T20:35:17.138Z,98104
2018-05-24T20:37:46.544Z,98106
2018-05-24T20:40:15.848Z,98107
2018-05-24T20:42:45.963Z,98109
2018-05-24T20:45:16.085Z,98109
2018-05-24T20:47:45.492Z,98111
2018-05-24T20:50:15.610Z,98117
2018-05-24T20:52:45.729Z,98120
2018-05-24T20:55:15.132Z,98120
2018-05-24T20:57:44.433Z,98124
2018-05-24T21:00:13.836Z,98128
2018-05-24T21:02:43.136Z,98128
2018-05-24T21:05:12.542Z,98122
2018-05-24T21:07:41.843Z,98118
2018-05-24T21:10:11.246Z,98116
2018-05-24T21:12:40.548Z,98115
2018-05-24T21:15:09.952Z,98117
2018-05-24T21:17:40.017Z,98118
2018-05-24T21:20:09.375Z,98115
2018-05-24T21:22:38.779Z,98112
2018-05-24T21:25:08.028Z,98107
2018-05-24T21:27:37.367Z,98105
2018-05-24T21:30:06.682Z,98106
2018-05-24T21:32:36.085Z,98110
2018-05-24T21:35:05.387Z,98112
2018-05-24T21:37:34.681Z,98118
2018-05-24T21:40:04.094Z,98117
2018-05-24T21:42:33.496Z,98126
2018-05-24T21:45:02.903Z,98128
2018-05-24T21:47:33.020Z,98127
2018-05-24T21:50:03.139Z,98127
2018-05-24T21:52:33.246Z,98124
2018-05-24T21:55:02.563Z,98122
2018-05-24T21:57:31.863Z,98122
2018-05-24T22:00:01.265Z,98121
2018-05-24T22:02:31.387Z,98123
2018-05-24T22:05:00.792Z,98129
2018-05-24T22:07:30.953Z,98130
2018-05-24T22:10:00.315Z,98136
2018-05-24T22:12:29.719Z,98131
2018-05-24T22:14:59.019Z,98137
2018-05-24T22:17:28.423Z,98142
2018-05-24T22:19:57.725Z,98143
2018-05-24T22:22:27.132Z,98141
2018-05-24T22:24:57.246Z,98141
2018-05-24T22:27:26.652Z,98143
2018-05-24T22:29:56.054Z,98147
2018-05-24T22:32:25.356Z,98145
2018-05-24T22:34:54.659Z,98152
2018-05-24T22:37:23.949Z,98148
2018-05-24T22:39:53.266Z,98153
2018-05-24T22:42:23.381Z,98155
2018-05-24T22:44:52.684Z,98157
2018-05-24T22:47:21.987Z,98152
2018-05-24T22:49:51.284Z,98157
2018-05-24T22:52:20.691Z,98161
2018-05-24T22:54:50.810Z,98158
2018-05-24T22:57:20.216Z,98160
2018-05-24T22:59:49.514Z,98161
2018-05-24T23:02:18.903Z,98159
2018-05-24T23:04:49.754Z,98156
2018-05-24T23:07:19.157Z,98159
2018-05-24T23:09:49.585Z,98158
2018-05-24T23:12:18.994Z,98163
2018-05-24T23:14:49.110Z,98161
2018-05-24T23:17:18.519Z,98164
2018-05-24T23:19:48.576Z,98163
2018-05-24T23:22:35.754Z,98159
2018-05-24T23:25:05.261Z,98158
2018-05-24T23:27:34.560Z,98159
2018-05-24T23:30:03.966Z,98157
2018-05-24T23:32:34.086Z,98153
2018-05-24T23:35:04.204Z,98150
2018-05-24T23:37:33.506Z,98148
2018-05-24T23:40:02.810Z,98147
2018-05-24T23:42:32.210Z,98149
2018-05-24T23:45:02.338Z,98150
2018-05-24T23:47:32.452Z,98148
2018-05-24T23:50:01.856Z,98150
2018-05-24T23:52:31.259Z,98154
2018-05-24T23:55:00.562Z,98152
2018-05-24T23:57:29.971Z,98149
